Time;durP1;ratioP1;P1;durP2;ratioP2;P2;SDS_P1;SDS_P2;PMS_P1;PMS_P2;Temp;Humidity;BMP_temperature;BMP_pressure;BME280_temperature;BME280_humidity;BME280_pressure;Samples;Min_cycle;Max_cycle;Signal;HPM_P1;HPM_P2
2022/03/27 00:02:19;;;;;;;3.88;0.60;;;23.20;99.90;;;;;;5073797;28;20032;-77
2022/03/27 00:04:47;;;;;;;4.32;0.70;;;23.30;99.90;;;;;;5073681;28;20431;-76
2022/03/27 00:07:14;;;;;;;4.78;0.90;;;23.40;99.90;;;;;;5055638;28;20025;-75
2022/03/27 00:09:42;;;;;;;4.65;0.98;;;23.50;99.90;;;;;;5073536;28;20097;-74
2022/03/27 00:12:09;;;;;;;5.20;1.73;;;23.40;99.90;;;;;;5073599;28;20428;-74
2022/03/27 00:14:37;;;;;;;3.63;1.17;;;23.50;99.90;;;;;;5073692;28;20370;-75
2022/03/27 00:17:04;;;;;;;3.70;1.02;;;23.70;99.90;;;;;;5055833;28;20119;-77
2022/03/27 00:19:32;;;;;;;4.28;0.82;;;24.00;99.90;;;;;;5073432;28;20542;-77
2022/03/27 00:21:59;;;;;;;7.00;1.40;;;24.40;99.90;;;;;;5055367;28;20099;-77
2022/03/27 00:24:27;;;;;;;7.03;0.70;;;24.70;99.90;;;;;;5073254;28;20067;-76
2022/03/27 00:26:57;;;;;;;3.55;0.60;;;25.00;99.90;;;;;;5055376;28;20020;-79
2022/03/27 00:29:24;;;;;;;;;;;25.00;99.90;;;;;;5055815;28;20496;-75
2022/03/27 00:31:51;;;;;;;4.20;0.82;;;24.80;99.90;;;;;;5055220;28;19904;-74
2022/03/27 00:34:21;;;;;;;4.47;1.35;;;24.70;99.90;;;;;;5073172;28;20393;-74
2022/03/27 00:36:49;;;;;;;3.78;0.80;;;24.50;99.90;;;;;;5055121;28;20028;-74
2022/03/27 00:39:17;;;;;;;3.75;0.63;;;24.20;99.90;;;;;;5073390;28;20024;-75
2022/03/27 00:41:44;;;;;;;3.50;0.50;;;24.20;99.90;;;;;;5072391;28;20017;-74
2022/03/27 00:44:12;;;;;;;5.65;0.65;;;24.00;99.90;;;;;;5054731;28;20028;-74
2022/03/27 00:46:39;;;;;;;2.80;0.38;;;23.70;99.90;;;;;;5073036;28;20054;-77
2022/03/27 00:49:07;;;;;;;2.60;0.40;;;23.60;99.90;;;;;;5072681;28;20027;-75
2022/03/27 00:51:34;;;;;;;3.20;0.73;;;23.50;99.90;;;;;;5054918;28;20024;-75
2022/03/27 00:54:02;;;;;;;5.18;0.63;;;23.40;99.90;;;;;;5072757;28;20036;-76
2022/03/27 00:56:29;;;;;;;2.05;0.55;;;23.60;99.90;;;;;;5054908;28;20554;-76
2022/03/27 00:58:57;;;;;;;5.85;1.35;;;23.70;99.90;;;;;;5054828;28;20388;-76
2022/03/27 01:01:35;;;;;;;2.92;1.13;;;23.80;99.90;;;;;;5054785;28;20543;-75
2022/03/27 01:04:05;;;;;;;3.15;1.17;;;23.50;99.90;;;;;;5073486;28;20043;-75
2022/03/27 01:06:33;;;;;;;6.57;1.85;;;23.40;99.90;;;;;;5054841;28;20032;-75
2022/03/27 01:11:49;;;;;;;9.85;2.08;;;22.70;99.90;;;;;;5073059;28;20027;-76
2022/03/27 01:14:27;;;;;;;6.85;1.25;;;22.50;99.90;;;;;;5072864;28;20013;-74
2022/03/27 01:16:58;;;;;;;9.98;2.08;;;22.10;99.90;;;;;;5072536;28;20107;-75
2022/03/27 01:19:28;;;;;;;7.32;1.30;;;21.80;99.90;;;;;;5072465;28;20020;-74
2022/03/27 01:21:55;;;;;;;3.23;0.73;;;21.60;99.90;;;;;;5072597;28;20020;-74
2022/03/27 01:24:23;;;;;;;4.10;0.80;;;21.60;99.90;;;;;;5072391;28;20024;-74
2022/03/27 01:26:50;;;;;;;5.00;1.40;;;21.70;99.90;;;;;;5072452;28;20027;-73
2022/03/27 01:29:18;;;;;;;6.28;1.88;;;22.00;99.90;;;;;;5072428;28;20473;-74
2022/03/27 01:31:47;;;;;;;13.55;2.45;;;22.00;99.90;;;;;;5072236;28;20516;-74
2022/03/27 01:34:15;;;;;;;5.25;1.20;;;22.20;99.90;;;;;;5072303;28;20063;-77
2022/03/27 01:36:42;;;;;;;9.23;2.42;;;22.30;99.90;;;;;;5054399;28;20020;-76
2022/03/27 01:39:12;;;;;;;9.18;2.30;;;22.40;99.90;;;;;;5072176;28;20039;-75
2022/03/27 01:41:40;;;;;;;;;;;22.50;99.90;;;;;;5072630;28;20369;-74
2022/03/27 01:44:10;;;;;;;7.35;1.10;;;22.70;99.90;;;;;;5053940;28;19966;-73
2022/03/27 01:46:40;;;;;;;7.07;0.95;;;22.80;99.90;;;;;;5054165;28;20035;-74
2022/03/27 01:49:10;;;;;;;4.78;0.77;;;22.80;99.90;;;;;;5054230;28;20021;-75
2022/03/27 01:51:39;;;;;;;6.43;0.90;;;23.00;99.90;;;;;;5072299;28;20032;-74
2022/03/27 01:54:07;;;;;;;4.20;0.70;;;23.20;99.90;;;;;;5074241;28;20107;-74
2022/03/27 01:56:36;;;;;;;4.07;0.80;;;23.50;99.90;;;;;;5076189;28;20114;-73
2022/03/27 01:59:04;;;;;;;6.20;0.90;;;23.60;99.90;;;;;;5058257;28;20028;-73
2022/03/27 02:01:32;;;;;;;4.05;1.25;;;23.90;99.90;;;;;;5076141;28;20100;-72
2022/03/27 02:04:00;;;;;;;5.55;0.93;;;24.00;99.90;;;;;;5057906;28;20461;-73
2022/03/27 02:06:27;;;;;;;2.75;0.73;;;24.10;99.90;;;;;;5075946;28;20021;-73
2022/03/27 02:08:55;;;;;;;4.15;0.60;;;24.10;99.90;;;;;;5057821;28;20523;-73
2022/03/27 02:11:22;;;;;;;4.45;1.00;;;23.80;99.90;;;;;;5057657;28;20028;-72
2022/03/27 02:13:51;;;;;;;4.15;0.85;;;23.80;99.90;;;;;;5075848;28;20020;-74
2022/03/27 02:16:18;;;;;;;2.05;0.60;;;23.60;99.90;;;;;;5075774;28;20081;-73
2022/03/27 02:18:46;;;;;;;2.53;0.88;;;23.70;99.90;;;;;;5057726;28;20028;-74
2022/03/27 02:21:13;;;;;;;5.00;0.88;;;23.80;99.90;;;;;;5057750;28;20037;-74
2022/03/27 02:23:40;;;;;;;4.60;1.00;;;23.80;99.90;;;;;;5057701;28;20070;-74
2022/03/27 02:26:08;;;;;;;6.93;1.48;;;23.80;99.90;;;;;;5075639;28;20041;-74
2022/03/27 02:28:35;;;;;;;5.88;1.20;;;23.80;99.90;;;;;;5057756;28;20024;-74
2022/03/27 02:31:03;;;;;;;4.43;0.90;;;23.70;99.90;;;;;;5057447;28;20020;-74
2022/03/27 02:33:31;;;;;;;6.00;0.85;;;23.60;99.90;;;;;;5057568;28;20021;-74
2022/03/27 02:35:58;;;;;;;7.03;1.00;;;23.40;99.90;;;;;;5057472;28;20058;-73
2022/03/27 02:38:26;;;;;;;6.30;1.17;;;23.40;99.90;;;;;;5075470;28;20020;-73
2022/03/27 02:40:53;;;;;;;3.85;0.75;;;23.20;99.90;;;;;;5057393;28;20406;-74
2022/03/27 02:43:21;;;;;;;7.45;0.80;;;23.10;99.90;;;;;;5075365;28;20431;-74
2022/03/27 02:45:50;;;;;;;4.03;0.95;;;23.10;99.90;;;;;;5057321;28;20035;-73
2022/03/27 02:48:17;;;;;;;3.40;0.93;;;23.00;99.90;;;;;;5057401;28;20021;-73
2022/03/27 02:50:45;;;;;;;3.28;0.70;;;23.10;99.90;;;;;;5057080;28;20025;-73
2022/03/27 02:53:12;;;;;;;6.35;1.25;;;23.20;99.90;;;;;;5075212;28;20047;-74
2022/03/27 02:55:40;;;;;;;8.63;1.25;;;23.20;99.90;;;;;;5075092;28;20374;-74
2022/03/27 02:58:07;;;;;;;3.45;0.80;;;23.30;99.90;;;;;;5075097;28;20445;-74
2022/03/27 03:00:35;;;;;;;4.95;1.00;;;23.40;99.90;;;;;;5075062;28;20028;-75
2022/03/27 03:03:03;;;;;;;5.18;1.10;;;23.30;99.90;;;;;;5057243;28;20352;-74
2022/03/27 03:05:30;;;;;;;3.92;0.80;;;23.50;99.90;;;;;;5056022;28;20065;-73
2022/03/27 03:07:58;;;;;;;4.05;0.77;;;23.50;99.90;;;;;;5074875;28;20029;-74
2022/03/27 03:10:26;;;;;;;6.05;0.93;;;23.60;99.90;;;;;;5056864;28;20127;-73
2022/03/27 03:12:53;;;;;;;5.18;1.10;;;23.90;99.90;;;;;;5056744;28;20044;-73
2022/03/27 03:15:22;;;;;;;3.47;0.70;;;23.90;99.90;;;;;;5056687;28;20444;-73
2022/03/27 03:17:49;;;;;;;4.72;0.73;;;24.10;99.90;;;;;;5074550;28;20060;-73
2022/03/27 03:20:19;;;;;;;5.47;0.73;;;24.10;99.90;;;;;;5056792;28;20138;-73
2022/03/27 03:22:46;;;;;;;6.15;1.20;;;24.30;99.90;;;;;;5074442;28;20164;-73
2022/03/27 03:25:14;;;;;;;6.40;1.08;;;24.30;99.90;;;;;;5056371;28;20123;-72
2022/03/27 03:27:41;;;;;;;4.82;1.00;;;24.20;99.90;;;;;;5074436;28;20025;-72
2022/03/27 03:30:10;;;;;;;4.63;1.33;;;24.10;99.90;;;;;;5074491;28;20051;-73
2022/03/27 03:32:37;;;;;;;6.43;1.60;;;24.20;99.90;;;;;;5056457;28;20017;-72
2022/03/27 03:35:08;;;;;;;5.53;0.93;;;24.40;99.90;;;;;;5056358;28;20047;-72
2022/03/27 03:37:37;;;;;;;5.90;0.80;;;24.40;99.90;;;;;;5056432;28;20086;-75
2022/03/27 03:40:07;;;;;;;7.40;1.08;;;24.20;99.90;;;;;;5074321;28;20523;-75
2022/03/27 03:42:36;;;;;;;7.68;1.23;;;24.20;99.90;;;;;;5074343;28;20031;-74
2022/03/27 03:45:06;;;;;;;6.10;1.00;;;24.10;99.90;;;;;;5056113;28;20035;-74
2022/03/27 03:47:34;;;;;;;4.25;0.80;;;24.10;99.90;;;;;;5074186;28;20493;-78
2022/03/27 03:50:01;;;;;;;8.80;1.13;;;24.00;99.90;;;;;;5074274;28;20020;-76
2022/03/27 03:52:29;;;;;;;6.95;1.45;;;23.80;99.90;;;;;;5056309;28;20035;-75
2022/03/27 03:54:57;;;;;;;5.38;1.00;;;23.60;99.90;;;;;;5056153;28;20378;-75
2022/03/27 03:57:24;;;;;;;6.00;1.05;;;23.60;99.90;;;;;;5056032;28;20021;-75
2022/03/27 03:59:51;;;;;;;6.72;1.05;;;23.50;99.90;;;;;;5055952;28;20028;-75
2022/03/27 04:02:19;;;;;;;6.65;1.17;;;23.40;99.90;;;;;;5055968;28;20047;-75
2022/03/27 04:04:46;;;;;;;7.70;1.67;;;23.40;99.90;;;;;;5055703;28;20025;-74
2022/03/27 04:07:14;;;;;;;9.52;1.55;;;23.20;99.90;;;;;;5055889;28;20074;-75
2022/03/27 04:09:41;;;;;;;3.53;1.13;;;23.10;99.90;;;;;;5055506;28;20055;-74
2022/03/27 04:12:09;;;;;;;5.50;0.82;;;23.10;99.90;;;;;;5073731;28;20546;-74
2022/03/27 04:14:39;;;;;;;7.05;1.00;;;23.00;99.90;;;;;;5073652;28;20024;-74
2022/03/27 04:17:06;;;;;;;10.40;1.50;;;23.00;99.90;;;;;;5072551;28;20035;-74
2022/03/27 04:19:33;;;;;;;6.97;1.17;;;23.10;99.90;;;;;;5073695;28;20055;-77
2022/03/27 04:22:01;;;;;;;8.63;1.25;;;23.00;99.90;;;;;;5055801;28;20031;-75
2022/03/27 04:24:28;;;;;;;7.20;1.35;;;22.80;99.90;;;;;;5055298;28;20492;-75
2022/03/27 04:26:56;;;;;;;9.18;2.22;;;22.40;99.90;;;;;;5073268;28;20028;-75
2022/03/27 04:29:23;;;;;;;8.48;1.30;;;22.20;99.90;;;;;;5073318;28;20423;-77
2022/03/27 04:31:51;;;;;;;5.53;1.20;;;22.20;99.90;;;;;;5055694;28;20111;-77
2022/03/27 04:34:18;;;;;;;8.35;1.25;;;22.20;99.90;;;;;;5055278;28;20026;-77
2022/03/27 04:36:46;;;;;;;7.25;1.45;;;22.10;99.90;;;;;;5055322;28;20017;-77
2022/03/27 04:39:13;;;;;;;6.25;0.90;;;22.10;99.90;;;;;;5055489;28;20078;-77
2022/03/27 04:41:41;;;;;;;7.32;1.30;;;21.90;99.90;;;;;;5055308;28;20479;-77
2022/03/27 04:44:08;;;;;;;7.03;1.42;;;21.90;99.90;;;;;;5073066;28;20525;-76
2022/03/27 04:46:36;;;;;;;7.28;1.30;;;21.80;99.90;;;;;;5073202;28;20158;-77
2022/03/27 04:49:03;;;;;;;8.07;1.48;;;21.70;99.90;;;;;;5072984;28;20013;-76
2022/03/27 04:51:31;;;;;;;7.40;1.60;;;21.70;99.90;;;;;;5055200;28;20024;-77
2022/03/27 04:53:59;;;;;;;9.10;1.90;;;21.70;99.90;;;;;;5054824;28;20033;-76
2022/03/27 04:56:26;;;;;;;9.55;1.80;;;21.70;99.90;;;;;;5055130;28;20028;-77
2022/03/27 04:58:54;;;;;;;11.60;1.42;;;21.60;99.90;;;;;;5054645;28;20485;-76
2022/03/27 05:01:21;;;;;;;8.00;1.25;;;21.50;99.90;;;;;;5054912;28;20031;-77
2022/03/27 05:03:48;;;;;;;5.55;1.20;;;21.40;99.90;;;;;;5055598;28;20024;-77
2022/03/27 05:06:16;;;;;;;9.20;2.25;;;21.30;99.90;;;;;;5055473;28;20115;-77
2022/03/27 05:08:44;;;;;;;7.85;1.20;;;21.20;99.90;;;;;;5074081;28;20475;-76
2022/03/27 05:11:12;;;;;;;9.35;1.90;;;21.20;99.90;;;;;;5072536;28;20024;-77
2022/03/27 05:13:40;;;;;;;9.52;1.90;;;21.20;99.90;;;;;;5073231;28;20020;-77
2022/03/27 05:16:07;;;;;;;9.60;1.55;;;21.30;99.90;;;;;;5054780;28;20032;-77
2022/03/27 05:18:34;;;;;;;10.45;1.50;;;21.20;99.90;;;;;;5072566;28;20024;-77
2022/03/27 05:21:02;;;;;;;6.68;0.80;;;21.20;99.90;;;;;;5072552;28;20117;-77
2022/03/27 05:23:29;;;;;;;8.80;1.25;;;21.10;99.90;;;;;;5054617;28;20480;-78
2022/03/27 05:25:57;;;;;;;5.50;1.58;;;21.10;99.90;;;;;;5072429;28;20058;-78
2022/03/27 05:28:24;;;;;;;11.40;1.40;;;21.10;99.90;;;;;;5072121;28;20048;-77
2022/03/27 05:30:52;;;;;;;8.90;1.10;;;21.00;99.90;;;;;;5072209;28;20027;-77
2022/03/27 05:33:20;;;;;;;9.02;1.58;;;21.00;99.90;;;;;;5054367;28;20021;-77
2022/03/27 05:35:47;;;;;;;8.05;1.23;;;21.00;99.90;;;;;;5054221;28;20031;-78
2022/03/27 05:38:16;;;;;;;7.90;1.17;;;21.10;99.90;;;;;;5072327;28;20103;-77
2022/03/27 05:40:43;;;;;;;9.43;0.88;;;21.10;99.90;;;;;;5072141;28;20043;-77
2022/03/27 05:43:11;;;;;;;5.80;0.80;;;21.10;99.90;;;;;;5054266;28;20520;-77
2022/03/27 05:45:39;;;;;;;9.85;1.58;;;21.20;99.90;;;;;;5071931;28;20017;-78
2022/03/27 05:48:08;;;;;;;5.07;0.70;;;21.20;99.90;;;;;;5072239;28;20017;-78
2022/03/27 05:50:36;;;;;;;6.38;0.95;;;21.20;99.90;;;;;;5053824;28;20020;-78
2022/03/27 05:53:03;;;;;;;5.82;1.02;;;21.20;99.90;;;;;;5053975;28;20017;-77
2022/03/27 05:55:30;;;;;;;6.15;0.88;;;21.10;99.90;;;;;;5053963;28;20025;-77
2022/03/27 05:57:59;;;;;;;4.13;0.75;;;21.10;99.90;;;;;;5053853;28;20033;-77
2022/03/27 06:00:26;;;;;;;10.40;1.67;;;21.10;99.90;;;;;;5072033;28;20028;-77
2022/03/27 06:02:54;;;;;;;7.57;1.20;;;21.20;99.90;;;;;;5072027;28;20047;-77
2022/03/27 06:05:25;;;;;;;7.43;1.33;;;21.20;99.90;;;;;;5072003;28;20031;-78
2022/03/27 06:07:55;;;;;;;4.65;0.95;;;21.20;99.90;;;;;;5072181;28;20485;-77
2022/03/27 06:10:32;;;;;;;9.60;1.50;;;21.10;99.90;;;;;;5072136;28;20518;-77
2022/03/27 06:13:01;;;;;;;7.32;1.83;;;21.20;99.90;;;;;;5072170;28;20016;-76
2022/03/27 06:15:30;;;;;;;8.85;1.65;;;21.30;99.90;;;;;;5054125;28;20044;-76
2022/03/27 06:17:59;;;;;;;8.50;1.60;;;21.20;99.90;;;;;;5072227;28;20031;-76
2022/03/27 06:20:30;;;;;;;10.68;1.75;;;21.20;99.90;;;;;;5053939;28;20532;-77
2022/03/27 06:22:58;;;;;;;8.65;2.20;;;21.30;99.90;;;;;;5054514;28;20029;-76
2022/03/27 06:25:30;;;;;;;12.32;1.98;;;21.40;99.90;;;;;;5072006;28;20056;-76
2022/03/27 06:27:59;;;;;;;7.93;1.35;;;21.40;99.90;;;;;;5054254;28;20086;-73
2022/03/27 06:30:28;;;;;;;6.93;1.38;;;21.40;99.90;;;;;;5053928;28;20025;-76
2022/03/27 06:32:56;;;;;;;6.72;1.48;;;21.40;99.90;;;;;;5053777;28;20076;-75
2022/03/27 06:35:24;;;;;;;9.43;1.33;;;21.40;99.90;;;;;;5054311;28;20033;-76
2022/03/27 06:37:53;;;;;;;12.68;2.30;;;21.50;99.90;;;;;;5053977;28;20485;-76
2022/03/27 06:40:21;;;;;;;12.48;1.48;;;21.40;99.90;;;;;;5054650;28;20370;-76
2022/03/27 06:42:49;;;;;;;8.48;1.40;;;21.50;99.90;;;;;;5075748;28;20399;-75
2022/03/27 06:45:18;;;;;;;6.82;1.92;;;21.40;99.90;;;;;;5075570;28;20044;-76
2022/03/27 06:47:47;;;;;;;8.10;1.67;;;21.30;99.90;;;;;;5057487;28;20376;-74
2022/03/27 06:50:16;;;;;;;11.10;2.28;;;21.30;99.90;;;;;;5058219;28;20078;-75
2022/03/27 06:52:47;;;;;;;7.28;1.33;;;21.30;99.90;;;;;;5076352;28;20072;-76
2022/03/27 06:55:15;;;;;;;7.80;1.77;;;21.20;99.90;;;;;;5057951;28;20388;-76
2022/03/27 06:57:44;;;;;;;8.65;1.88;;;21.10;99.90;;;;;;5075764;28;20024;-77
2022/03/27 07:03:02;;;;;;;12.35;2.10;;;21.00;99.90;;;;;;5075717;28;20082;-76
2022/03/27 07:05:48;;;;;;;9.30;1.40;;;20.90;99.90;;;;;;5075370;28;20035;-76
2022/03/27 07:08:17;;;;;;;7.95;1.85;;;20.80;99.90;;;;;;5057101;28;20401;-76
2022/03/27 07:10:46;;;;;;;12.20;2.78;;;20.80;99.90;;;;;;5075393;28;20033;-78
2022/03/27 07:13:17;;;;;;;12.10;3.00;;;20.80;99.90;;;;;;5057220;28;20481;-78
2022/03/27 07:15:46;;;;;;;11.45;1.75;;;20.80;99.90;;;;;;5075582;28;20540;-75
2022/03/27 07:18:16;;;;;;;12.17;1.70;;;20.80;99.90;;;;;;5056923;28;20368;-75
2022/03/27 07:20:46;;;;;;;11.23;2.25;;;20.80;99.90;;;;;;5075101;28;20140;-76
2022/03/27 07:23:17;;;;;;;12.27;2.97;;;20.80;99.90;;;;;;5075060;28;20039;-76
2022/03/27 07:25:47;;;;;;;11.60;2.35;;;20.80;99.90;;;;;;5075042;28;20028;-75
2022/03/27 07:28:18;;;;;;;7.43;1.47;;;20.80;99.90;;;;;;5057150;28;20476;-75
2022/03/27 07:30:47;;;;;;;7.97;1.80;;;20.80;99.90;;;;;;5040812;28;20555;-76
2022/03/27 07:33:15;;;;;;;7.63;1.40;;;20.70;99.90;;;;;;5074806;28;20017;-75
2022/03/27 07:35:46;;;;;;;12.73;2.08;;;20.80;99.90;;;;;;5056633;28;20481;-76
2022/03/27 07:38:15;;;;;;;10.07;1.95;;;20.70;99.90;;;;;;5056736;28;20028;-76
2022/03/27 07:40:43;;;;;;;10.60;2.17;;;20.70;99.90;;;;;;5056649;28;20031;-76
2022/03/27 07:43:10;;;;;;;5.22;1.45;;;20.70;99.90;;;;;;5074600;28;20385;-76
2022/03/27 07:45:38;;;;;;;5.88;1.45;;;20.70;99.90;;;;;;5074658;28;20477;-76
2022/03/27 07:48:06;;;;;;;6.22;1.55;;;20.60;99.90;;;;;;5056455;28;20048;-75
2022/03/27 07:50:33;;;;;;;12.48;1.92;;;20.70;99.90;;;;;;5074530;28;20012;-75
2022/03/27 07:53:02;;;;;;;9.40;2.10;;;20.70;99.90;;;;;;5074167;28;20021;-76
2022/03/27 07:55:30;;;;;;;9.18;1.70;;;20.60;99.90;;;;;;5056120;28;20043;-76
2022/03/27 07:57:58;;;;;;;6.60;2.00;;;20.60;99.90;;;;;;5074055;28;20521;-76
2022/03/27 08:00:27;;;;;;;9.77;1.75;;;20.60;99.90;;;;;;5056064;28;20024;-75
2022/03/27 08:02:55;;;;;;;10.20;2.05;;;20.60;99.90;;;;;;5055998;28;20477;-76
2022/03/27 08:05:26;;;;;;;9.23;2.08;;;20.50;99.90;;;;;;5055907;28;20086;-76
2022/03/27 08:07:52;;;;;;;;;;;20.50;99.90;;;;;;5056683;28;20016;-76
2022/03/27 08:10:20;;;;;;;7.97;1.63;;;20.50;99.90;;;;;;5073796;28;19939;-78
2022/03/27 08:12:48;;;;;;;13.07;2.38;;;20.50;99.90;;;;;;5056259;28;20048;-80
2022/03/27 08:15:17;;;;;;;13.80;2.70;;;20.50;99.90;;;;;;5056191;28;20025;-76
2022/03/27 08:17:45;;;;;;;9.18;1.92;;;20.50;99.90;;;;;;5073723;28;20027;-76
2022/03/27 08:20:12;;;;;;;9.35;1.73;;;20.50;99.90;;;;;;5074135;28;20027;-76
2022/03/27 08:22:39;;;;;;;10.10;1.65;;;20.50;99.90;;;;;;5074044;28;20369;-77
2022/03/27 08:25:07;;;;;;;12.32;1.92;;;20.50;99.90;;;;;;5056195;28;20097;-77
2022/03/27 08:27:35;;;;;;;10.75;1.88;;;20.50;99.90;;;;;;5055766;28;20024;-78
2022/03/27 08:30:03;;;;;;;9.25;1.63;;;20.40;99.90;;;;;;5055975;28;20115;-77
2022/03/27 08:32:30;;;;;;;11.80;1.40;;;20.40;99.90;;;;;;5073661;28;20024;-77
2022/03/27 08:34:57;;;;;;;11.07;1.52;;;20.40;99.90;;;;;;5073570;28;20031;-77
2022/03/27 08:37:25;;;;;;;14.52;2.38;;;20.40;99.90;;;;;;5073440;28;20412;-77
2022/03/27 08:39:53;;;;;;;10.35;2.10;;;20.40;99.90;;;;;;5073281;28;20067;-75
2022/03/27 08:42:20;;;;;;;7.55;1.80;;;20.40;99.90;;;;;;5055128;28;20116;-75
2022/03/27 08:44:48;;;;;;;10.30;1.70;;;20.40;99.90;;;;;;5073116;28;20024;-75
2022/03/27 08:47:23;;;;;;;10.82;2.20;;;20.50;99.90;;;;;;5055135;28;20028;-75
2022/03/27 08:50:13;;;;;;;10.02;2.63;;;20.40;99.90;;;;;;5055184;28;20389;-75
2022/03/27 08:52:55;;;;;;;15.85;2.83;;;20.50;99.90;;;;;;5073338;28;20032;-77
2022/03/27 08:55:46;;;;;;;6.45;0.90;;;20.40;99.90;;;;;;5073019;28;20024;-77
2022/03/27 08:58:14;;;;;;;6.10;1.25;;;20.00;99.90;;;;;;5050306;28;20036;-76
2022/03/27 09:00:44;;;;;;;4.40;0.68;;;19.80;99.90;;;;;;5055039;28;20025;-77
2022/03/27 09:03:11;;;;;;;5.40;1.15;;;19.70;99.90;;;;;;5072323;28;20112;-76
2022/03/27 09:05:40;;;;;;;4.10;0.98;;;19.50;99.90;;;;;;5054769;28;20041;-75
2022/03/27 09:08:09;;;;;;;5.78;0.75;;;19.40;99.90;;;;;;5054532;28;20023;-77
2022/03/27 09:10:38;;;;;;;3.35;0.90;;;19.40;99.90;;;;;;5054695;28;20115;-77
2022/03/27 09:13:09;;;;;;;4.03;0.88;;;19.40;99.90;;;;;;5072654;28;20023;-76
2022/03/27 09:15:37;;;;;;;8.38;1.52;;;19.50;99.90;;;;;;5072591;28;20420;-77
2022/03/27 09:18:07;;;;;;;5.97;1.60;;;19.50;99.90;;;;;;5072713;28;20031;-81
2022/03/27 09:20:44;;;;;;;;;;;19.40;99.90;;;;;;5055101;28;20024;-79
2022/03/27 09:23:15;;;;;;;8.40;1.80;;;19.50;99.90;;;;;;5054538;28;19904;-80
2022/03/27 09:25:43;;;;;;;;;;;19.50;99.90;;;;;;5072914;28;20031;-79
2022/03/27 09:28:11;;;;;;;10.50;2.30;;;19.40;99.90;;;;;;5072620;28;20285;-79
2022/03/27 09:30:39;;;;;;;10.48;2.00;;;19.50;99.90;;;;;;5054448;28;20032;-78
2022/03/27 09:33:06;;;;;;;9.02;2.70;;;19.50;99.90;;;;;;5054507;28;20021;-78
2022/03/27 09:35:35;;;;;;;12.77;3.65;;;19.60;99.90;;;;;;5054346;28;20390;-77
2022/03/27 09:38:19;;;;;;;10.95;2.40;;;19.50;99.90;;;;;;5072342;28;20021;-78
2022/03/27 09:40:46;;;;;;;11.73;2.28;;;19.60;99.90;;;;;;5054322;28;20025;-79
2022/03/27 09:43:15;;;;;;;11.73;2.92;;;19.60;99.90;;;;;;5072361;28;20035;-79
2022/03/27 09:45:56;;;;;;;12.30;3.45;;;19.60;99.90;;;;;;5072154;28;20384;-80
2022/03/27 09:48:24;;;;;;;11.35;2.53;;;19.60;99.90;;;;;;5072312;28;20016;-81
2022/03/27 09:51:00;;;;;;;11.48;2.17;;;19.60;99.90;;;;;;5072305;28;20480;-79
2022/03/27 09:53:35;;;;;;;10.63;2.88;;;19.70;99.90;;;;;;5054623;28;20048;-79
2022/03/27 09:56:03;;;;;;;9.32;3.10;;;19.70;99.90;;;;;;5054345;28;20024;-78
2022/03/27 09:58:38;;;;;;;10.90;2.03;;;19.70;99.90;;;;;;5072051;28;20047;-77
2022/03/27 10:01:16;;;;;;;11.27;2.20;;;19.70;99.90;;;;;;5053959;28;20021;-78
2022/03/27 10:04:13;;;;;;;9.95;2.60;;;19.70;99.90;;;;;;5072160;28;20150;-75
2022/03/27 10:06:42;;;;;;;12.85;3.60;;;19.70;99.90;;;;;;5072048;28;20361;-75
2022/03/27 10:09:14;;;;;;;11.45;2.78;;;19.70;99.90;;;;;;5071828;28;20509;-75
2022/03/27 10:11:43;;;;;;;15.98;3.08;;;19.60;99.90;;;;;;5054019;28;20464;-76
2022/03/27 10:14:11;;;;;;;13.43;3.55;;;19.60;99.90;;;;;;5054415;28;20016;-76
2022/03/27 10:16:47;;;;;;;15.93;3.50;;;19.60;99.90;;;;;;5075966;28;20473;-76
2022/03/27 10:19:27;;;;;;;11.20;2.92;;;19.60;99.90;;;;;;5075965;28;20396;-75
2022/03/27 10:21:56;;;;;;;12.05;3.13;;;19.70;99.90;;;;;;5075959;28;20035;-75
2022/03/27 10:24:32;;;;;;;11.40;2.90;;;19.60;99.90;;;;;;5075826;28;20028;-75
2022/03/27 10:27:02;;;;;;;8.07;2.45;;;19.60;99.90;;;;;;5076031;28;20388;-76
2022/03/27 10:29:30;;;;;;;8.70;2.30;;;19.60;99.90;;;;;;5057620;28;20021;-75
2022/03/27 10:32:04;;;;;;;7.40;2.05;;;19.60;99.90;;;;;;5075593;28;20074;-76
2022/03/27 10:34:36;;;;;;;9.55;1.70;;;19.60;99.90;;;;;;5057750;28;20020;-76
2022/03/27 10:37:13;;;;;;;10.18;2.28;;;19.60;99.90;;;;;;5075713;28;20049;-76
2022/03/27 10:40:02;;;;;;;9.30;2.20;;;19.60;99.90;;;;;;5075481;28;20025;-76
2022/03/27 10:43:01;;;;;;;9.70;1.73;;;19.60;99.90;;;;;;5075483;28;20416;-76
2022/03/27 10:45:28;;;;;;;7.57;1.50;;;19.60;99.90;;;;;;5057276;28;20032;-77
2022/03/27 10:48:16;;;;;;;7.30;1.98;;;19.60;99.90;;;;;;5075332;28;20107;-77
2022/03/27 10:50:51;;;;;;;5.30;1.15;;;19.50;99.90;;;;;;5075352;28;20020;-76
2022/03/27 10:53:24;;;;;;;10.05;1.70;;;19.50;99.90;;;;;;5057162;28;20085;-76
2022/03/27 10:55:53;;;;;;;7.75;1.60;;;19.50;99.90;;;;;;5075238;28;20023;-75
2022/03/27 10:58:29;;;;;;;4.80;1.30;;;19.40;99.90;;;;;;5075270;28;20059;-76
2022/03/27 11:00:59;;;;;;;5.78;1.23;;;19.40;99.90;;;;;;5075250;28;20055;-76
2022/03/27 11:03:45;;;;;;;5.97;1.23;;;19.40;99.90;;;;;;5075058;28;20052;-75
2022/03/27 11:06:31;;;;;;;7.70;1.50;;;19.40;99.90;;;;;;5075000;28;20434;-76
2022/03/27 11:09:04;;;;;;;5.20;1.35;;;19.50;99.90;;;;;;5074814;28;20041;-76
2022/03/27 11:11:37;;;;;;;6.47;1.35;;;19.50;99.90;;;;;;5075182;28;20020;-75
2022/03/27 11:14:07;;;;;;;5.20;1.50;;;19.60;99.90;;;;;;5056868;28;20056;-76
2022/03/27 11:16:40;;;;;;;7.43;1.20;;;19.60;99.90;;;;;;5056625;28;20051;-75
2022/03/27 11:19:47;;;;;;;4.97;1.10;;;19.60;99.90;;;;;;5074751;28;20021;-75
2022/03/27 11:22:47;;;;;;;4.85;1.10;;;19.60;99.90;;;;;;5056719;28;20408;-75
2022/03/27 11:25:25;;;;;;;3.00;1.02;;;19.60;99.90;;;;;;5074613;28;20564;-75
2022/03/27 11:27:57;;;;;;;4.13;1.20;;;19.70;99.90;;;;;;5074066;28;20024;-76
2022/03/27 11:30:25;;;;;;;4.70;1.25;;;19.60;99.90;;;;;;5074625;28;20052;-76
2022/03/27 11:33:18;;;;;;;3.45;1.00;;;19.60;99.90;;;;;;5056621;28;20122;-76
2022/03/27 11:36:11;;;;;;;5.30;1.27;;;19.60;99.90;;;;;;5074511;28;20028;-76
2022/03/27 11:39:17;;;;;;;5.00;1.33;;;19.60;99.90;;;;;;5056483;28;20028;-76
2022/03/27 11:41:48;;;;;;;5.32;1.27;;;19.60;99.90;;;;;;5051733;28;20036;-76
2022/03/27 11:44:23;;;;;;;4.22;1.30;;;19.60;99.90;;;;;;5056194;28;20388;-76
2022/03/27 11:46:55;;;;;;;6.95;1.40;;;19.60;99.90;;;;;;5074296;28;20021;-76
2022/03/27 11:49:38;;;;;;;5.65;1.25;;;19.60;99.90;;;;;;5056195;28;20396;-76
2022/03/27 11:52:06;;;;;;;5.32;1.73;;;19.50;99.90;;;;;;5074083;28;20499;-76
2022/03/27 11:54:34;;;;;;;3.97;1.10;;;19.60;99.90;;;;;;5056196;28;20032;-76
2022/03/27 11:57:02;;;;;;;4.18;1.10;;;19.50;99.90;;;;;;5074136;28;20020;-76
2022/03/27 11:59:31;;;;;;;3.83;1.67;;;19.50;99.90;;;;;;5074203;28;20048;-76
2022/03/27 12:02:03;;;;;;;4.25;1.70;;;19.50;99.90;;;;;;5073878;28;20025;-76
2022/03/27 12:04:31;;;;;;;4.90;1.55;;;19.50;99.90;;;;;;5073889;28;20012;-76
2022/03/27 12:07:04;;;;;;;7.03;2.08;;;19.40;99.90;;;;;;5055758;28;20056;-76
2022/03/27 12:09:33;;;;;;;5.75;1.88;;;19.40;99.90;;;;;;5055691;28;20052;-76
2022/03/27 12:12:10;;;;;;;4.35;1.75;;;19.40;99.90;;;;;;5073655;28;20016;-76
2022/03/27 12:14:56;;;;;;;4.45;2.15;;;19.50;99.90;;;;;;5055748;28;20391;-76
2022/03/27 12:17:25;;;;;;;6.22;2.08;;;19.50;99.90;;;;;;5055776;28;20100;-76
2022/03/27 12:20:09;;;;;;;7.72;2.08;;;19.50;99.90;;;;;;5073603;28;20021;-76
2022/03/27 12:22:49;;;;;;;4.80;1.60;;;19.50;99.90;;;;;;5055599;28;20024;-76
2022/03/27 12:25:21;;;;;;;4.20;2.47;;;19.50;99.90;;;;;;5055505;28;20486;-76
2022/03/27 12:30:54;;;;;;;3.75;1.80;;;19.50;99.90;;;;;;5073484;28;20031;-76
2022/03/27 12:33:27;;;;;;;4.95;2.67;;;19.50;99.90;;;;;;5055435;28;20476;-76
2022/03/27 12:36:11;;;;;;;8.85;2.97;;;19.50;99.90;;;;;;5055312;28;20024;-76
2022/03/27 12:38:39;;;;;;;6.70;3.50;;;19.50;99.90;;;;;;5072380;28;20107;-76
2022/03/27 12:41:10;;;;;;;5.88;3.25;;;19.50;99.90;;;;;;5055260;28;20115;-76
2022/03/27 12:43:57;;;;;;;5.68;4.00;;;19.40;99.90;;;;;;5055348;28;20162;-76
2022/03/27 12:46:25;;;;;;;7.50;5.18;;;19.40;99.90;;;;;;5073054;28;20073;-76
2022/03/27 12:49:03;;;;;;;8.95;5.30;;;19.40;99.90;;;;;;5073013;28;20357;-76
2022/03/27 12:51:31;;;;;;;9.77;6.38;;;19.40;99.90;;;;;;5054954;28;20039;-77
2022/03/27 12:54:16;;;;;;;11.07;6.70;;;19.40;99.90;;;;;;5072925;28;20017;-77
2022/03/27 12:56:57;;;;;;;12.25;7.75;;;19.40;99.90;;;;;;5055010;28;20034;-76
2022/03/27 12:59:25;;;;;;;11.50;7.35;;;19.40;99.90;;;;;;5054779;28;20085;-76
2022/03/27 13:01:52;;;;;;;12.02;8.50;;;19.40;99.90;;;;;;5072821;28;20030;-76
2022/03/27 13:04:19;;;;;;;14.98;8.45;;;19.40;99.90;;;;;;5054778;28;20025;-76
2022/03/27 13:06:59;;;;;;;10.88;8.15;;;19.40;99.90;;;;;;5054755;28;20031;-76
2022/03/27 13:09:26;;;;;;;14.57;8.93;;;19.40;99.90;;;;;;5072509;28;20055;-77
2022/03/27 13:11:54;;;;;;;13.90;8.07;;;19.50;99.90;;;;;;5054677;28;20397;-76